Time;durP1;ratioP1;P1;durP2;ratioP2;P2;SDS_P1;SDS_P2;PMS_P1;PMS_P2;Temp;Humidity;BMP_temperature;BMP_pressure;BME280_temperature;BME280_humidity;BME280_pressure;Samples;Min_cycle;Max_cycle;Signal;HPM_P1;HPM_P2
2023/09/28 00:02:49;;;;;;;4.45;3.78;;;20.10;76.90;;;;;;10488961;28;20424;-59
2023/09/28 00:07:50;;;;;;;4.00;3.45;;;20.10;76.80;;;;;;10489251;28;20395;-58
2023/09/28 00:12:53;;;;;;;3.53;3.22;;;20.10;77.00;;;;;;10488749;28;20040;-58
2023/09/28 00:17:54;;;;;;;4.90;3.70;;;20.10;76.80;;;;;;10487491;28;20047;-59
2023/09/28 00:22:56;;;;;;;3.50;3.20;;;20.10;76.80;;;;;;10488472;28;20021;-58
2023/09/28 00:27:57;;;;;;;4.70;3.67;;;20.00;76.70;;;;;;10489294;28;20043;-59
2023/09/28 00:32:59;;;;;;;4.18;3.38;;;20.00;76.70;;;;;;10530118;28;20028;-59
2023/09/28 00:37:59;;;;;;;4.43;4.03;;;20.00;76.60;;;;;;10530102;28;20046;-59
2023/09/28 00:43:01;;;;;;;4.25;3.42;;;20.00;76.50;;;;;;10530058;28;20042;-58
2023/09/28 00:48:06;;;;;;;4.35;3.53;;;20.00;76.60;;;;;;10503246;28;20036;-57
2023/09/28 00:53:08;;;;;;;3.80;3.08;;;20.00;76.50;;;;;;10496249;28;20028;-58
2023/09/28 00:58:11;;;;;;;4.55;3.25;;;20.00;76.60;;;;;;10496663;28;20499;-59
2023/09/28 01:03:12;;;;;;;3.47;3.00;;;20.00;76.50;;;;;;10495770;28;20040;-59
2023/09/28 01:08:19;;;;;;;3.38;2.75;;;20.00;76.50;;;;;;10496147;28;20498;-59
2023/09/28 01:13:22;;;;;;;4.40;3.25;;;20.00;76.40;;;;;;10495964;28;20032;-59
2023/09/28 01:18:23;;;;;;;3.53;2.85;;;20.00;76.30;;;;;;10495902;28;20403;-58
2023/09/28 01:23:24;;;;;;;3.35;2.90;;;20.00;76.50;;;;;;10495780;28;20032;-58
2023/09/28 01:28:27;;;;;;;3.80;3.15;;;20.00;76.50;;;;;;10499861;28;20054;-59
2023/09/28 01:33:29;;;;;;;3.25;2.60;;;20.00;76.50;;;;;;10535523;28;20537;-58
2023/09/28 01:38:40;;;;;;;3.03;2.70;;;20.00;76.40;;;;;;10537005;28;20505;-58
2023/09/28 01:43:41;;;;;;;3.08;2.78;;;20.00;76.40;;;;;;10535046;28;20244;-59
2023/09/28 01:48:42;;;;;;;4.55;3.67;;;20.00;76.30;;;;;;10503460;28;20437;-58
2023/09/28 01:53:43;;;;;;;3.60;3.30;;;20.00;77.10;;;;;;10494181;28;20044;-59
2023/09/28 01:58:43;;;;;;;2.97;2.63;;;20.00;76.40;;;;;;10494423;28;20033;-59
2023/09/28 02:03:45;;;;;;;2.17;1.90;;;20.00;76.40;;;;;;10491383;28;20131;-59
2023/09/28 02:08:45;;;;;;;2.75;2.33;;;20.00;76.40;;;;;;10493604;28;20039;-59
2023/09/28 02:13:46;;;;;;;3.95;2.47;;;20.00;76.30;;;;;;10491757;28;20043;-59
2023/09/28 02:18:47;;;;;;;3.60;2.92;;;20.00;76.30;;;;;;10493347;28;20053;-59
2023/09/28 02:23:48;;;;;;;3.80;3.20;;;20.00;76.30;;;;;;10491753;28;20387;-59
2023/09/28 02:28:48;;;;;;;4.18;3.33;;;19.90;76.20;;;;;;10500385;28;20052;-59
2023/09/28 02:33:49;;;;;;;4.50;4.07;;;20.00;76.40;;;;;;10534571;28;20247;-59
2023/09/28 02:38:51;;;;;;;4.28;3.28;;;20.00;76.50;;;;;;10496177;28;20389;-58
2023/09/28 02:43:51;;;;;;;4.45;3.33;;;20.00;76.40;;;;;;10469453;28;20106;-59
2023/09/28 02:48:53;;;;;;;4.03;3.30;;;20.00;76.40;;;;;;10471952;28;20147;-58
2023/09/28 02:53:54;;;;;;;4.20;3.60;;;19.90;76.40;;;;;;10470806;28;20109;-59
2023/09/28 02:58:54;;;;;;;3.63;2.92;;;20.00;76.40;;;;;;10470344;28;20037;-57
2023/09/28 03:03:56;;;;;;;5.10;3.63;;;20.00;76.40;;;;;;10470791;28;20095;-57
2023/09/28 03:08:57;;;;;;;4.63;3.83;;;19.90;76.40;;;;;;10473375;28;20033;-58
2023/09/28 03:13:57;;;;;;;3.50;3.15;;;19.90;76.40;;;;;;10471333;28;20028;-57
2023/09/28 03:19:00;;;;;;;4.30;3.75;;;19.90;76.40;;;;;;10472183;28;20040;-56
2023/09/28 03:24:01;;;;;;;3.88;2.92;;;19.90;76.40;;;;;;10476355;28;20111;-57
2023/09/28 03:29:02;;;;;;;3.42;3.00;;;19.90;76.40;;;;;;10476257;28;20047;-57
2023/09/28 03:34:03;;;;;;;3.28;2.90;;;19.90;76.40;;;;;;10469708;28;20035;-59
2023/09/28 03:39:03;;;;;;;4.05;3.15;;;19.90;76.40;;;;;;10471948;28;20027;-59
2023/09/28 03:44:06;;;;;;;3.80;3.40;;;19.90;76.40;;;;;;10470885;28;20067;-60
2023/09/28 03:49:07;;;;;;;3.88;3.10;;;19.90;76.30;;;;;;10478103;28;20036;-59
2023/09/28 03:54:08;;;;;;;4.20;3.28;;;19.90;76.40;;;;;;10492629;28;20033;-59
2023/09/28 03:59:09;;;;;;;3.70;2.85;;;19.90;76.40;;;;;;10492241;28;20040;-59
2023/09/28 04:04:10;;;;;;;3.20;2.55;;;19.90;76.30;;;;;;10492601;28;20078;-59
2023/09/28 04:09:11;;;;;;;4.10;2.47;;;19.90;76.30;;;;;;10468873;28;20369;-59
2023/09/28 04:14:12;;;;;;;3.30;3.00;;;19.90;76.30;;;;;;10463198;28;20037;-59
2023/09/28 04:19:12;;;;;;;3.38;3.00;;;19.90;76.30;;;;;;10467058;28;20048;-59
2023/09/28 04:24:14;;;;;;;4.47;3.15;;;19.90;76.30;;;;;;10471095;28;20550;-59
2023/09/28 04:29:15;;;;;;;3.65;2.90;;;19.80;76.30;;;;;;10473327;28;20032;-59
2023/09/28 04:34:16;;;;;;;4.07;3.67;;;19.90;76.30;;;;;;10468712;28;20027;-59
2023/09/28 04:39:17;;;;;;;4.03;3.25;;;19.90;76.30;;;;;;10478401;28;20054;-59
2023/09/28 04:44:18;;;;;;;3.28;2.92;;;19.90;76.30;;;;;;10479014;28;20112;-57
2023/09/28 04:49:20;;;;;;;6.03;3.55;;;19.90;76.20;;;;;;10468363;28;20032;-57
2023/09/28 04:54:21;;;;;;;9.15;3.75;;;19.90;76.20;;;;;;10467008;28;20013;-56
2023/09/28 04:59:22;;;;;;;4.53;3.40;;;20.00;76.60;;;;;;10461288;28;20033;-57
2023/09/28 05:04:23;;;;;;;5.90;3.28;;;20.00;76.20;;;;;;10473574;28;20071;-56
2023/09/28 05:09:24;;;;;;;4.97;2.92;;;20.00;76.10;;;;;;10471653;28;20484;-56
2023/09/28 05:14:25;;;;;;;6.70;2.90;;;20.10;76.50;;;;;;10446907;28;20029;-56
2023/09/28 05:19:26;;;;;;;5.22;3.08;;;20.20;76.40;;;;;;10472909;28;20460;-57
2023/09/28 05:24:27;;;;;;;6.45;3.22;;;20.20;76.30;;;;;;10479974;28;20028;-57
2023/09/28 05:29:29;;;;;;;13.35;3.58;;;20.20;76.50;;;;;;10487191;28;20391;-56
2023/09/28 05:34:30;;;;;;;12.68;3.80;;;20.20;76.20;;;;;;10451073;28;20108;-57
2023/09/28 05:39:32;;;;;;;13.63;4.47;;;20.40;76.20;;;;;;10497835;28;20036;-57
2023/09/28 05:44:33;;;;;;;19.85;4.35;;;20.20;76.40;;;;;;10495742;28;20132;-57
2023/09/28 05:49:34;;;;;;;25.98;6.50;;;20.20;77.30;;;;;;10496647;28;20029;-57
2023/09/28 05:54:35;;;;;;;17.00;4.53;;;20.10;76.80;;;;;;10496843;28;20033;-57
2023/09/28 05:59:35;;;;;;;16.52;5.13;;;20.10;76.80;;;;;;10494986;28;20028;-57
2023/09/28 06:04:36;;;;;;;16.55;4.32;;;20.10;76.90;;;;;;10496422;28;20025;-57
2023/09/28 06:09:38;;;;;;;12.68;4.45;;;20.10;76.90;;;;;;10495268;28;20032;-57
2023/09/28 06:14:39;;;;;;;12.95;4.57;;;20.10;76.90;;;;;;10460154;28;20028;-56
2023/09/28 06:19:39;;;;;;;7.80;3.92;;;20.10;77.00;;;;;;10453979;28;20045;-58
2023/09/28 06:24:40;;;;;;;16.25;5.32;;;20.10;76.90;;;;;;10464421;28;20024;-58
2023/09/28 06:29:41;;;;;;;8.48;3.90;;;20.00;76.90;;;;;;10508539;28;20065;-57
2023/09/28 06:34:41;;;;;;;9.65;3.83;;;20.00;76.90;;;;;;10535565;28;20457;-58
2023/09/28 06:39:42;;;;;;;12.13;4.45;;;20.00;76.90;;;;;;10536350;28;20028;-58
2023/09/28 06:44:43;;;;;;;9.18;4.32;;;20.00;76.90;;;;;;10536119;28;20043;-58
2023/09/28 06:49:44;;;;;;;7.82;3.60;;;20.00;76.90;;;;;;10452133;28;20048;-58
2023/09/28 06:54:44;;;;;;;6.53;3.35;;;20.00;76.90;;;;;;10451645;28;20456;-57
2023/09/28 06:59:45;;;;;;;7.03;3.63;;;20.00;76.90;;;;;;10451932;28;20026;-58
2023/09/28 07:04:46;;;;;;;6.18;3.65;;;20.00;76.90;;;;;;10453285;28;20025;-57
2023/09/28 07:09:47;;;;;;;7.88;4.07;;;19.90;76.80;;;;;;10450750;28;20089;-57
2023/09/28 07:14:47;;;;;;;5.85;3.90;;;20.00;77.00;;;;;;10452041;28;20477;-57
2023/09/28 07:19:48;;;;;;;5.63;3.50;;;20.00;76.80;;;;;;10451870;28;20114;-58
2023/09/28 07:24:49;;;;;;;8.85;4.10;;;20.00;76.70;;;;;;10452026;28;20021;-57
2023/09/28 07:29:50;;;;;;;7.57;4.00;;;20.00;76.70;;;;;;10483098;28;20039;-57
2023/09/28 07:34:52;;;;;;;7.80;4.13;;;20.00;76.60;;;;;;10534790;28;20119;-57
2023/09/28 07:39:54;;;;;;;4.68;3.22;;;20.00;76.50;;;;;;10534353;28;20069;-58
2023/09/28 07:44:55;;;;;;;7.45;3.60;;;20.00;76.50;;;;;;10532541;28;20028;-58
2023/09/28 07:49:56;;;;;;;6.00;3.38;;;20.00;77.00;;;;;;10491587;28;20032;-57
2023/09/28 07:54:56;;;;;;;7.07;3.47;;;20.00;76.40;;;;;;10491986;28;20031;-57
2023/09/28 07:59:57;;;;;;;5.90;3.45;;;20.00;76.40;;;;;;10490119;28;20036;-57
2023/09/28 08:04:58;;;;;;;6.60;3.50;;;20.00;76.30;;;;;;10506789;28;20082;-58
2023/09/28 08:10:00;;;;;;;7.47;3.72;;;20.00;76.40;;;;;;10490774;28;20103;-58
2023/09/28 08:15:01;;;;;;;5.72;3.60;;;20.00;76.40;;;;;;10491495;28;20040;-58
2023/09/28 08:20:02;;;;;;;8.43;3.78;;;20.00;76.40;;;;;;10490377;28;20494;-57
2023/09/28 08:25:08;;;;;;;4.68;2.90;;;20.00;76.40;;;;;;10489961;28;20044;-57
2023/09/28 08:30:10;;;;;;;5.30;2.65;;;20.10;76.40;;;;;;10508883;28;20064;-57
2023/09/28 08:35:11;;;;;;;10.57;4.38;;;20.10;76.40;;;;;;10532515;28;20102;-57
2023/09/28 08:40:13;;;;;;;7.10;3.70;;;20.10;76.30;;;;;;10532434;28;20051;-58
2023/09/28 08:45:16;;;;;;;4.85;3.53;;;20.10;76.20;;;;;;10527616;28;20467;-57
2023/09/28 08:50:33;;;;;;;4.97;3.17;;;20.10;76.10;;;;;;10490548;28;20039;-58
2023/09/28 08:55:34;;;;;;;6.93;3.38;;;20.20;76.70;;;;;;10489483;28;20082;-57
2023/09/28 09:00:36;;;;;;;4.07;3.05;;;20.10;76.10;;;;;;10488382;28;20032;-58
2023/09/28 09:05:40;;;;;;;6.70;3.50;;;20.10;76.10;;;;;;10489277;28;20107;-57
2023/09/28 09:10:40;;;;;;;4.85;2.90;;;20.10;76.10;;;;;;10493451;28;20131;-57
2023/09/28 09:15:45;;;;;;;7.05;3.35;;;20.10;76.10;;;;;;10496636;28;20037;-58
2023/09/28 09:20:47;;;;;;;6.25;3.47;;;20.10;76.10;;;;;;10497615;28;20468;-58
2023/09/28 09:25:48;;;;;;;7.07;3.42;;;20.10;76.20;;;;;;10497930;28;20096;-57
2023/09/28 09:30:52;;;;;;;5.55;3.08;;;20.10;76.70;;;;;;10521783;28;20036;-56
2023/09/28 09:35:53;;;;;;;5.32;2.80;;;20.10;76.10;;;;;;10539642;28;20032;-58
2023/09/28 09:41:04;;;;;;;9.00;3.22;;;20.20;76.10;;;;;;10538641;28;20024;-58
2023/09/28 09:46:06;;;;;;;4.95;3.08;;;20.20;76.20;;;;;;10526947;28;20059;-57
2023/09/28 09:51:16;;;;;;;9.45;3.28;;;20.20;76.00;;;;;;10496401;28;20029;-58
2023/09/28 09:56:16;;;;;;;5.28;3.30;;;20.20;76.00;;;;;;10496880;28;20098;-57
2023/09/28 10:01:19;;;;;;;6.03;2.90;;;20.20;76.00;;;;;;10495864;28;20071;-58
2023/09/28 10:06:22;;;;;;;6.28;3.28;;;20.20;76.00;;;;;;10495764;28;20024;-57
2023/09/28 10:11:24;;;;;;;6.63;3.30;;;20.30;76.00;;;;;;10495677;28;20137;-58
2023/09/28 10:16:26;;;;;;;5.95;3.35;;;20.30;76.00;;;;;;10494318;28;20114;-57
2023/09/28 10:21:26;;;;;;;6.97;3.30;;;20.30;75.90;;;;;;10492658;28;20060;-58
2023/09/28 10:26:31;;;;;;;4.03;2.38;;;20.30;75.90;;;;;;10495191;28;20824;-57
2023/09/28 10:31:41;;;;;;;5.93;3.05;;;20.30;75.90;;;;;;10523291;28;20499;-57
2023/09/28 10:36:42;;;;;;;4.90;3.08;;;20.30;75.90;;;;;;10536597;28;20028;-57
2023/09/28 10:41:49;;;;;;;6.07;2.80;;;20.30;76.10;;;;;;10536773;28;20032;-57
2023/09/28 10:46:51;;;;;;;5.70;2.88;;;20.30;75.90;;;;;;10518712;28;20035;-57
2023/09/28 10:51:55;;;;;;;5.22;2.92;;;20.30;75.90;;;;;;10494252;28;20048;-57
2023/09/28 10:56:56;;;;;;;5.22;2.85;;;20.30;75.90;;;;;;10494363;28;20040;-58
2023/09/28 11:01:57;;;;;;;6.50;2.92;;;20.30;75.90;;;;;;10493771;28;20433;-57
2023/09/28 11:07:01;;;;;;;5.30;2.75;;;20.30;75.80;;;;;;10493682;28;20039;-57
2023/09/28 11:12:10;;;;;;;6.63;2.88;;;20.40;75.90;;;;;;10493171;28;20430;-57
2023/09/28 11:17:10;;;;;;;6.22;2.90;;;20.30;75.80;;;;;;10493292;28;20086;-58
2023/09/28 11:22:14;;;;;;;4.43;2.45;;;20.30;75.70;;;;;;10491339;28;20020;-57
2023/09/28 11:27:16;;;;;;;5.15;2.92;;;20.30;75.80;;;;;;10493007;28;20032;-58
2023/09/28 11:32:17;;;;;;;6.80;2.85;;;20.30;75.80;;;;;;10527415;28;20024;-58
2023/09/28 11:37:18;;;;;;;4.60;2.42;;;20.30;75.80;;;;;;10534997;28;20482;-58
2023/09/28 11:42:21;;;;;;;4.00;3.00;;;20.30;75.80;;;;;;10533881;28;20016;-58
2023/09/28 11:47:22;;;;;;;5.55;2.70;;;20.30;75.80;;;;;;10510743;28;20032;-57
2023/09/28 11:52:23;;;;;;;5.88;3.05;;;20.30;75.90;;;;;;10478108;28;20044;-58
2023/09/28 11:57:25;;;;;;;5.18;2.95;;;20.40;75.70;;;;;;10479959;28;20028;-58
2023/09/28 12:02:26;;;;;;;7.85;2.70;;;20.40;75.60;;;;;;10490518;28;20340;-57
2023/09/28 12:07:26;;;;;;;5.10;3.25;;;20.40;75.40;;;;;;10478018;28;20480;-57
2023/09/28 12:12:27;;;;;;;5.90;3.42;;;20.50;75.40;;;;;;10490063;28;20032;-57
2023/09/28 12:17:28;;;;;;;4.25;2.33;;;20.40;75.50;;;;;;10491215;28;20051;-57
2023/09/28 12:22:29;;;;;;;6.25;2.65;;;20.40;75.60;;;;;;10487925;28;20024;-58
2023/09/28 12:27:30;;;;;;;6.30;3.17;;;20.40;75.60;;;;;;10490483;28;20028;-58
2023/09/28 12:32:32;;;;;;;5.90;2.67;;;20.40;75.70;;;;;;10528729;28;20035;-57
2023/09/28 12:37:36;;;;;;;5.65;3.08;;;20.40;75.70;;;;;;10532080;28;20025;-57
2023/09/28 12:42:38;;;;;;;4.80;2.70;;;20.40;75.70;;;;;;10490785;28;20024;-58
2023/09/28 12:47:40;;;;;;;5.25;2.67;;;20.40;75.70;;;;;;10503441;28;20024;-58
2023/09/28 12:52:40;;;;;;;4.78;2.30;;;20.40;75.70;;;;;;10503396;28;20578;-57
2023/09/28 12:57:41;;;;;;;7.47;3.17;;;20.40;75.70;;;;;;10503787;28;20036;-57
2023/09/28 13:02:43;;;;;;;4.75;2.72;;;20.40;75.70;;;;;;10503341;28;20027;-57
2023/09/28 13:07:44;;;;;;;4.68;2.55;;;20.40;75.70;;;;;;10494591;28;20484;-58
2023/09/28 13:12:46;;;;;;;5.47;3.42;;;20.40;75.70;;;;;;10494210;28;20036;-58
2023/09/28 13:17:46;;;;;;;4.57;2.55;;;20.40;75.60;;;;;;10479611;28;20152;-58
2023/09/28 13:22:47;;;;;;;6.70;3.58;;;20.40;75.60;;;;;;10476954;28;20038;-57
2023/09/28 13:27:52;;;;;;;3.80;2.22;;;20.40;75.60;;;;;;10482771;28;20037;-57
2023/09/28 13:32:53;;;;;;;5.75;2.83;;;20.40;75.50;;;;;;10482936;28;20025;-57
2023/09/28 13:37:54;;;;;;;4.78;2.70;;;20.50;75.60;;;;;;10482776;28;20468;-57
2023/09/28 13:42:56;;;;;;;8.80;3.70;;;20.40;75.50;;;;;;10479654;28;20029;-57
2023/09/28 13:47:58;;;;;;;4.45;2.15;;;20.50;75.60;;;;;;10500234;28;20032;-58
2023/09/28 13:52:59;;;;;;;3.75;2.03;;;20.40;75.40;;;;;;10501877;28;20092;-57
2023/09/28 13:58:00;;;;;;;4.97;2.60;;;20.40;75.50;;;;;;10498225;28;20107;-56
2023/09/28 14:03:01;;;;;;;4.80;2.72;;;20.40;75.60;;;;;;10495838;28;20513;-58
2023/09/28 14:08:03;;;;;;;4.05;2.70;;;20.40;75.60;;;;;;10496824;28;20035;-58
2023/09/28 14:13:04;;;;;;;5.10;2.40;;;20.40;75.70;;;;;;10496891;28;20032;-57
2023/09/28 14:18:06;;;;;;;3.83;2.13;;;20.40;75.60;;;;;;10496007;28;20469;-57
2023/09/28 14:23:07;;;;;;;4.90;2.30;;;20.40;75.60;;;;;;10474268;28;20519;-57
2023/09/28 14:28:08;;;;;;;5.45;2.80;;;20.40;75.60;;;;;;10497174;28;20043;-57
2023/09/28 14:33:08;;;;;;;6.05;3.17;;;20.40;75.60;;;;;;10508981;28;20028;-58
2023/09/28 14:38:10;;;;;;;4.53;2.55;;;20.40;75.60;;;;;;10469296;28;20488;-57
2023/09/28 14:43:11;;;;;;;5.15;2.58;;;20.30;75.50;;;;;;10474450;28;20049;-58
2023/09/28 14:48:13;;;;;;;4.05;2.63;;;20.30;75.50;;;;;;10472842;28;20111;-57
2023/09/28 14:53:16;;;;;;;3.00;2.10;;;20.40;75.60;;;;;;10485081;28;20037;-57
2023/09/28 14:58:16;;;;;;;4.70;3.33;;;20.30;75.50;;;;;;10494403;28;20032;-57
2023/09/28 15:03:17;;;;;;;6.22;2.92;;;20.30;75.60;;;;;;10493347;28;20036;-58
2023/09/28 15:08:18;;;;;;;4.65;2.42;;;20.30;75.70;;;;;;10491330;28;20043;-58
2023/09/28 15:13:19;;;;;;;5.00;2.05;;;20.30;75.70;;;;;;10493282;28;20028;-58
2023/09/28 15:18:20;;;;;;;4.18;2.33;;;20.30;75.70;;;;;;10492808;28;20431;-57
2023/09/28 15:23:21;;;;;;;5.50;2.97;;;20.30;75.70;;;;;;10492120;28;20067;-57
2023/09/28 15:28:22;;;;;;;6.82;2.72;;;20.30;75.60;;;;;;10496660;28;20028;-57
2023/09/28 15:33:23;;;;;;;3.92;2.30;;;20.30;75.60;;;;;;10533912;28;20028;-58
2023/09/28 15:38:25;;;;;;;6.93;3.65;;;20.30;75.60;;;;;;10466489;28;20037;-57
2023/09/28 15:43:28;;;;;;;8.73;3.38;;;20.30;75.60;;;;;;10450524;28;20136;-57
2023/09/28 15:48:29;;;;;;;11.35;3.72;;;20.30;75.70;;;;;;10486580;28;20113;-58
2023/09/28 15:53:29;;;;;;;16.15;4.47;;;20.30;75.90;;;;;;10491248;28;20485;-57
2023/09/28 15:58:30;;;;;;;38.83;8.32;;;20.40;75.80;;;;;;10489902;28;20055;-57
2023/09/28 16:03:31;;;;;;;22.85;6.75;;;20.40;76.00;;;;;;10491978;28;20383;-59
2023/09/28 16:08:32;;;;;;;24.15;4.80;;;20.40;75.80;;;;;;10490647;28;20028;-58
2023/09/28 16:13:33;;;;;;;15.05;4.32;;;20.40;76.00;;;;;;10492702;28;20550;-58
2023/09/28 16:18:33;;;;;;;25.52;6.30;;;20.50;75.90;;;;;;10489573;28;20051;-58
2023/09/28 16:23:34;;;;;;;20.75;6.22;;;20.60;76.50;;;;;;10491142;28;20027;-58
2023/09/28 16:28:36;;;;;;;22.67;5.97;;;20.60;76.40;;;;;;10490621;28;20056;-57
2023/09/28 16:33:36;;;;;;;25.30;5.43;;;20.70;76.50;;;;;;10490385;28;20037;-57
2023/09/28 16:38:37;;;;;;;32.75;8.10;;;20.70;76.80;;;;;;10488986;28;20033;-59
2023/09/28 16:43:38;;;;;;;24.85;6.07;;;20.70;76.70;;;;;;10490812;28;20067;-59
2023/09/28 16:48:41;;;;;;;44.72;11.40;;;20.70;76.70;;;;;;10449928;28;20028;-59
2023/09/28 16:53:42;;;;;;;44.20;9.23;;;20.60;76.40;;;;;;10447742;28;20460;-58
2023/09/28 16:58:45;;;;;;;35.88;10.77;;;20.50;76.80;;;;;;10449226;28;20033;-57
2023/09/28 17:03:45;;;;;;;40.53;8.80;;;20.50;76.80;;;;;;10449398;28;20029;-58
2023/09/28 17:08:48;;;;;;;42.55;9.95;;;20.50;76.70;;;;;;10448319;28;20041;-58
2023/09/28 17:13:48;;;;;;;35.67;8.77;;;20.50;76.70;;;;;;10449393;28;20091;-58
2023/09/28 17:18:49;;;;;;;30.40;9.27;;;20.40;76.70;;;;;;10448835;28;20047;-58
2023/09/28 17:23:50;;;;;;;20.23;8.25;;;20.40;76.60;;;;;;10448123;28;20029;-58
2023/09/28 17:28:51;;;;;;;25.60;8.40;;;20.40;76.80;;;;;;10478142;28;20047;-58
2023/09/28 17:33:51;;;;;;;25.30;7.28;;;20.40;77.00;;;;;;10539676;28;20036;-58
2023/09/28 17:38:52;;;;;;;25.70;7.38;;;20.40;77.00;;;;;;10539717;28;20032;-59
2023/09/28 17:43:53;;;;;;;33.03;8.68;;;20.40;76.80;;;;;;10492413;28;20028;-59
2023/09/28 17:48:53;;;;;;;23.10;7.32;;;20.40;76.50;;;;;;10476003;28;20650;-59
2023/09/28 17:53:54;;;;;;;25.10;8.20;;;20.40;76.70;;;;;;10466464;28;20025;-59
2023/09/28 17:58:55;;;;;;;25.45;7.25;;;20.40;76.80;;;;;;10467349;28;20025;-57
2023/09/28 18:03:57;;;;;;;29.70;6.80;;;20.40;76.90;;;;;;10495443;28;20027;-57
2023/09/28 18:08:58;;;;;;;20.77;6.22;;;20.40;76.80;;;;;;10485950;28;20040;-59
2023/09/28 18:13:58;;;;;;;19.10;6.25;;;20.40;76.80;;;;;;10460419;28;20071;-57
2023/09/28 18:18:59;;;;;;;23.67;6.63;;;20.40;76.70;;;;;;10475565;28;20377;-57
2023/09/28 18:24:00;;;;;;;15.13;5.68;;;20.40;76.70;;;;;;10474163;28;20086;-57
2023/09/28 18:29:02;;;;;;;13.48;4.45;;;20.30;76.70;;;;;;10475324;28;20032;-57
2023/09/28 18:34:03;;;;;;;10.85;4.75;;;20.30;76.70;;;;;;10487343;28;20454;-57
2023/09/28 18:39:03;;;;;;;12.75;4.80;;;20.30;76.60;;;;;;10492714;28;20476;-57
2023/09/28 18:44:05;;;;;;;14.85;4.82;;;20.30;76.60;;;;;;10494831;28;20028;-56
2023/09/28 18:49:05;;;;;;;15.10;3.75;;;20.30;76.80;;;;;;10477985;28;20033;-56
2023/09/28 18:54:06;;;;;;;18.70;5.68;;;20.30;76.80;;;;;;10488037;28;20394;-56
2023/09/28 18:59:09;;;;;;;15.48;5.03;;;20.30;76.70;;;;;;10472743;28;20040;-56
2023/09/28 19:04:10;;;;;;;19.50;4.93;;;20.40;76.60;;;;;;10473515;28;20021;-56
2023/09/28 19:09:16;;;;;;;11.27;4.30;;;20.40;76.60;;;;;;10471796;28;20656;-56
2023/09/28 19:14:17;;;;;;;11.35;4.13;;;20.40;76.50;;;;;;10456601;28;20098;-55
2023/09/28 19:19:18;;;;;;;9.30;3.22;;;20.30;76.50;;;;;;10449286;28;20121;-56
2023/09/28 19:24:18;;;;;;;15.15;4.70;;;20.30;76.50;;;;;;10460653;28;20082;-57
2023/09/28 19:29:19;;;;;;;11.65;4.38;;;20.30;76.60;;;;;;10475585;28;20442;-56
2023/09/28 19:34:20;;;;;;;8.43;3.75;;;20.30;76.50;;;;;;10470661;28;20029;-56
2023/09/28 19:39:24;;;;;;;10.00;3.67;;;20.30;76.60;;;;;;10470636;28;20056;-55
2023/09/28 19:44:25;;;;;;;8.45;4.18;;;20.20;76.50;;;;;;10481585;28;20452;-55
2023/09/28 19:49:26;;;;;;;11.70;4.47;;;20.20;76.50;;;;;;10468985;28;20032;-56
2023/09/28 19:54:27;;;;;;;8.45;3.55;;;20.20;76.40;;;;;;10451624;28;20544;-56
2023/09/28 19:59:29;;;;;;;10.45;4.63;;;20.20;76.50;;;;;;10451309;28;20033;-55
2023/09/28 20:04:29;;;;;;;10.00;4.32;;;20.20;76.50;;;;;;10451383;28;20364;-55
2023/09/28 20:09:30;;;;;;;9.55;3.85;;;20.20;76.50;;;;;;10450489;28;20041;-55
2023/09/28 20:14:31;;;;;;;8.88;4.05;;;20.20;76.50;;;;;;10450950;28;20041;-56
2023/09/28 20:19:32;;;;;;;8.18;3.65;;;20.20;76.40;;;;;;10450363;28;20548;-55
2023/09/28 20:24:33;;;;;;;9.10;3.33;;;20.20;76.40;;;;;;10450480;28;20048;-55
2023/09/28 20:29:33;;;;;;;7.57;3.13;;;20.20;76.40;;;;;;10477200;28;20036;-56
2023/09/28 20:34:34;;;;;;;9.05;3.63;;;20.20;76.40;;;;;;10534170;28;20363;-56
2023/09/28 20:39:41;;;;;;;10.35;4.47;;;20.20;76.40;;;;;;10532995;28;20081;-56
2023/09/28 20:44:44;;;;;;;9.68;2.83;;;20.20;76.40;;;;;;10532024;28;20039;-56
2023/09/28 20:49:45;;;;;;;7.00;3.20;;;20.20;76.40;;;;;;10449730;28;20033;-56
2023/09/28 20:54:46;;;;;;;11.20;3.75;;;20.20;76.40;;;;;;10450040;28;20033;-56
2023/09/28 20:59:47;;;;;;;9.15;3.53;;;20.20;76.40;;;;;;10449637;28;20025;-56
2023/09/28 21:04:48;;;;;;;7.72;3.00;;;20.20;76.40;;;;;;10450360;28;20025;-56
2023/09/28 21:09:49;;;;;;;8.02;3.38;;;20.20;76.30;;;;;;10457332;28;20583;-55
2023/09/28 21:14:50;;;;;;;7.03;2.95;;;20.20;76.30;;;;;;10457832;28;20043;-56
2023/09/28 21:19:50;;;;;;;7.03;3.00;;;20.20;76.30;;;;;;10473410;28;20062;-55
2023/09/28 21:24:52;;;;;;;7.07;2.72;;;20.20;76.30;;;;;;10498661;28;20063;-56
2023/09/28 21:29:53;;;;;;;6.85;2.67;;;20.10;76.30;;;;;;10514446;28;20508;-56
2023/09/28 21:34:54;;;;;;;5.53;2.60;;;20.10;76.30;;;;;;10538651;28;20036;-56
2023/09/28 21:39:55;;;;;;;6.55;2.40;;;20.10;76.30;;;;;;10539627;28;20596;-56
2023/09/28 21:44:59;;;;;;;3.92;2.55;;;20.10;76.30;;;;;;10538329;28;20031;-56
2023/09/28 21:49:59;;;;;;;6.63;2.50;;;20.10;76.20;;;;;;10497453;28;20363;-56
2023/09/28 21:55:00;;;;;;;6.13;2.50;;;20.10;76.20;;;;;;10497586;28;20060;-56
2023/09/28 22:00:11;;;;;;;7.85;4.15;;;20.10;76.20;;;;;;10497105;28;20036;-56
2023/09/28 22:05:12;;;;;;;6.45;2.50;;;20.10;76.20;;;;;;10497526;28;20097;-56
2023/09/28 22:10:13;;;;;;;5.18;2.75;;;20.10;76.20;;;;;;10496710;28;20050;-56
2023/09/28 22:15:13;;;;;;;4.85;2.30;;;20.10;76.20;;;;;;10478934;28;20025;-56
2023/09/28 22:20:14;;;;;;;6.25;2.97;;;20.10;76.20;;;;;;10494654;28;20633;-56
2023/09/28 22:25:18;;;;;;;4.82;2.25;;;20.10;76.20;;;;;;10496784;28;20020;-56
2023/09/28 22:30:19;;;;;;;5.68;2.70;;;20.10;76.20;;;;;;10515208;28;20032;-55
2023/09/28 22:35:20;;;;;;;4.43;2.33;;;20.10;76.80;;;;;;10537856;28;20035;-56
2023/09/28 22:40:20;;;;;;;5.18;2.88;;;20.10;76.20;;;;;;10537616;28;20543;-55
2023/09/28 22:45:21;;;;;;;6.38;2.92;;;20.10;76.20;;;;;;10532338;28;20078;-56
2023/09/28 22:50:22;;;;;;;3.83;2.05;;;20.10;76.20;;;;;;10495306;28;20028;-56
2023/09/28 22:55:23;;;;;;;5.30;2.40;;;20.10;76.20;;;;;;10495733;28;20037;-56
2023/09/28 23:00:24;;;;;;;7.20;2.97;;;20.10;76.20;;;;;;10494916;28;20033;-55
2023/09/28 23:05:25;;;;;;;4.95;2.40;;;20.10;76.20;;;;;;10495312;28;20119;-56
2023/09/28 23:10:25;;;;;;;4.32;2.58;;;20.00;76.10;;;;;;10494391;28;20032;-56
2023/09/28 23:15:26;;;;;;;5.85;3.28;;;20.10;76.10;;;;;;10494571;28;20029;-56
2023/09/28 23:20:27;;;;;;;7.35;2.78;;;20.00;76.10;;;;;;10493848;28;20040;-56
2023/09/28 23:25:28;;;;;;;4.40;2.60;;;20.00;76.10;;;;;;10494232;28;20099;-56
2023/09/28 23:30:29;;;;;;;3.83;1.92;;;20.00;76.10;;;;;;10514503;28;20020;-56
2023/09/28 23:35:30;;;;;;;4.22;2.33;;;20.00;76.10;;;;;;10534622;28;20476;-56
2023/09/28 23:40:30;;;;;;;4.25;2.25;;;20.00;76.10;;;;;;10535011;28;20161;-56
2023/09/28 23:45:33;;;;;;;4.80;2.03;;;20.00;76.10;;;;;;10528868;28;20025;-56
2023/09/28 23:50:35;;;;;;;3.67;2.20;;;20.00;76.10;;;;;;10492675;28;20468;-56
2023/09/28 23:55:36;;;;;;;5.68;2.95;;;20.00;76.10;;;;;;10493259;28;20036;-56
